Аэропорт: Сокол. Магадан

ICAO: UHMM

METAR:
2018/11/19 10:00
UHMM 191000Z 00000MPS 2700 -SHSN VV012 M12/M13 Q1008 RMK QFE741
METAR:
2018/11/19 09:21
TAF UHMM 190801Z 1909/2015 02003G10MPS 9999 SCT030CB OVC070 
      TEMPO 1909/1915 5000 -SHSN BKN030CB OVC070 
      TEMPO 2000/2009 3100 -SHSN BKN020CB OVC070